sensor_id;sensor_type;location;lat;lon;timestamp;P1;durP1;ratioP1;P2;durP2;ratioP2
75628;SDS011;64213;46.452;16.994;2023-08-07T00:02:17;5.85;;;0.88;;
75628;SDS011;64213;46.452;16.994;2023-08-07T00:05:19;5.82;;;1.35;;
75628;SDS011;64213;46.452;16.994;2023-08-07T00:08:21;7.30;;;1.20;;
75628;SDS011;64213;46.452;16.994;2023-08-07T00:11:23;7.37;;;1.10;;
75628;SDS011;64213;46.452;16.994;2023-08-07T00:14:25;3.87;;;0.77;;
75628;SDS011;64213;46.452;16.994;2023-08-07T00:17:28;4.57;;;0.80;;
75628;SDS011;64213;46.452;16.994;2023-08-07T00:20:30;5.90;;;0.98;;
75628;SDS011;64213;46.452;16.994;2023-08-07T00:23:32;6.22;;;0.80;;
75628;SDS011;64213;46.452;16.994;2023-08-07T00:26:34;3.87;;;0.77;;
75628;SDS011;64213;46.452;16.994;2023-08-07T00:29:36;4.03;;;0.70;;
75628;SDS011;64213;46.452;16.994;2023-08-07T00:32:38;5.62;;;0.82;;
75628;SDS011;64213;46.452;16.994;2023-08-07T00:35:40;5.10;;;1.00;;
75628;SDS011;64213;46.452;16.994;2023-08-07T00:38:42;5.90;;;1.08;;
75628;SDS011;64213;46.452;16.994;2023-08-07T00:41:44;6.87;;;0.90;;
75628;SDS011;64213;46.452;16.994;2023-08-07T00:44:46;6.87;;;0.90;;
75628;SDS011;64213;46.452;16.994;2023-08-07T00:47:48;4.65;;;0.90;;
75628;SDS011;64213;46.452;16.994;2023-08-07T00:50:50;5.43;;;0.75;;
75628;SDS011;64213;46.452;16.994;2023-08-07T00:53:53;4.60;;;0.90;;
75628;SDS011;64213;46.452;16.994;2023-08-07T00:56:57;8.00;;;1.00;;
75628;SDS011;64213;46.452;16.994;2023-08-07T01:00:11;6.43;;;1.00;;
75628;SDS011;64213;46.452;16.994;2023-08-07T01:03:15;6.12;;;1.15;;
75628;SDS011;64213;46.452;16.994;2023-08-07T01:06:17;5.93;;;1.20;;
75628;SDS011;64213;46.452;16.994;2023-08-07T01:09:19;5.70;;;1.37;;
75628;SDS011;64213;46.452;16.994;2023-08-07T01:12:23;7.53;;;1.17;;
75628;SDS011;64213;46.452;16.994;2023-08-07T01:15:35;6.23;;;1.13;;
75628;SDS011;64213;46.452;16.994;2023-08-07T01:18:39;6.30;;;1.58;;
75628;SDS011;64213;46.452;16.994;2023-08-07T01:21:44;6.75;;;1.37;;
75628;SDS011;64213;46.452;16.994;2023-08-07T01:24:50;6.25;;;1.30;;
75628;SDS011;64213;46.452;16.994;2023-08-07T01:27:53;7.17;;;1.80;;
75628;SDS011;64213;46.452;16.994;2023-08-07T01:31:04;7.03;;;1.90;;
75628;SDS011;64213;46.452;16.994;2023-08-07T01:34:12;7.55;;;1.73;;
75628;SDS011;64213;46.452;16.994;2023-08-07T01:37:18;6.53;;;1.92;;
75628;SDS011;64213;46.452;16.994;2023-08-07T01:40:23;7.05;;;1.87;;
75628;SDS011;64213;46.452;16.994;2023-08-07T01:43:26;6.97;;;1.98;;
75628;SDS011;64213;46.452;16.994;2023-08-07T01:46:28;6.90;;;1.90;;
75628;SDS011;64213;46.452;16.994;2023-08-07T01:49:30;7.90;;;2.08;;
75628;SDS011;64213;46.452;16.994;2023-08-07T01:52:32;7.18;;;1.83;;
75628;SDS011;64213;46.452;16.994;2023-08-07T01:55:35;6.62;;;1.77;;
75628;SDS011;64213;46.452;16.994;2023-08-07T01:58:37;6.57;;;1.77;;
75628;SDS011;64213;46.452;16.994;2023-08-07T02:01:39;6.87;;;1.70;;
75628;SDS011;64213;46.452;16.994;2023-08-07T02:04:41;8.05;;;1.70;;
75628;SDS011;64213;46.452;16.994;2023-08-07T02:07:43;7.55;;;2.10;;
75628;SDS011;64213;46.452;16.994;2023-08-07T02:10:46;7.72;;;2.30;;
75628;SDS011;64213;46.452;16.994;2023-08-07T02:13:48;8.00;;;1.90;;
75628;SDS011;64213;46.452;16.994;2023-08-07T02:16:50;7.07;;;2.27;;
75628;SDS011;64213;46.452;16.994;2023-08-07T02:19:52;9.88;;;2.30;;
75628;SDS011;64213;46.452;16.994;2023-08-07T02:22:54;10.85;;;3.10;;
75628;SDS011;64213;46.452;16.994;2023-08-07T02:25:56;10.93;;;2.60;;
75628;SDS011;64213;46.452;16.994;2023-08-07T02:28:58;9.07;;;3.07;;
75628;SDS011;64213;46.452;16.994;2023-08-07T02:32:01;8.27;;;1.80;;
75628;SDS011;64213;46.452;16.994;2023-08-07T02:35:05;7.82;;;2.10;;
75628;SDS011;64213;46.452;16.994;2023-08-07T02:38:07;7.65;;;2.40;;
75628;SDS011;64213;46.452;16.994;2023-08-07T02:41:09;8.18;;;2.50;;
75628;SDS011;64213;46.452;16.994;2023-08-07T02:44:11;8.10;;;2.23;;
75628;SDS011;64213;46.452;16.994;2023-08-07T02:47:13;7.03;;;2.03;;
75628;SDS011;64213;46.452;16.994;2023-08-07T02:50:15;7.15;;;1.87;;
75628;SDS011;64213;46.452;16.994;2023-08-07T02:53:17;7.45;;;2.40;;
75628;SDS011;64213;46.452;16.994;2023-08-07T02:56:19;7.55;;;2.60;;
75628;SDS011;64213;46.452;16.994;2023-08-07T02:59:21;7.75;;;2.67;;
75628;SDS011;64213;46.452;16.994;2023-08-07T03:02:23;7.17;;;2.07;;
75628;SDS011;64213;46.452;16.994;2023-08-07T03:05:25;7.85;;;2.30;;
75628;SDS011;64213;46.452;16.994;2023-08-07T03:08:27;9.98;;;2.85;;
75628;SDS011;64213;46.452;16.994;2023-08-07T03:11:29;8.40;;;2.10;;
75628;SDS011;64213;46.452;16.994;2023-08-07T03:14:31;10.20;;;1.97;;
75628;SDS011;64213;46.452;16.994;2023-08-07T03:17:33;8.47;;;1.70;;
75628;SDS011;64213;46.452;16.994;2023-08-07T03:20:38;7.05;;;1.58;;
75628;SDS011;64213;46.452;16.994;2023-08-07T03:23:40;8.25;;;1.90;;
75628;SDS011;64213;46.452;16.994;2023-08-07T03:26:42;9.65;;;2.12;;
75628;SDS011;64213;46.452;16.994;2023-08-07T03:29:45;10.97;;;2.03;;
75628;SDS011;64213;46.452;16.994;2023-08-07T03:32:47;6.87;;;1.93;;
75628;SDS011;64213;46.452;16.994;2023-08-07T03:35:49;7.35;;;1.98;;
75628;SDS011;64213;46.452;16.994;2023-08-07T03:38:52;7.05;;;1.67;;
75628;SDS011;64213;46.452;16.994;2023-08-07T03:41:54;7.70;;;1.90;;
75628;SDS011;64213;46.452;16.994;2023-08-07T03:44:56;6.90;;;1.48;;
75628;SDS011;64213;46.452;16.994;2023-08-07T03:47:58;6.70;;;2.07;;
75628;SDS011;64213;46.452;16.994;2023-08-07T03:51:06;6.35;;;1.70;;
75628;SDS011;64213;46.452;16.994;2023-08-07T03:54:12;10.80;;;1.70;;
75628;SDS011;64213;46.452;16.994;2023-08-07T03:57:14;6.75;;;1.62;;
75628;SDS011;64213;46.452;16.994;2023-08-07T04:00:16;6.73;;;2.00;;
75628;SDS011;64213;46.452;16.994;2023-08-07T04:03:19;8.43;;;1.93;;
75628;SDS011;64213;46.452;16.994;2023-08-07T04:06:22;8.25;;;1.80;;
75628;SDS011;64213;46.452;16.994;2023-08-07T04:09:24;6.60;;;1.70;;
75628;SDS011;64213;46.452;16.994;2023-08-07T04:12:26;6.62;;;1.27;;
75628;SDS011;64213;46.452;16.994;2023-08-07T04:15:29;6.45;;;1.90;;
75628;SDS011;64213;46.452;16.994;2023-08-07T04:18:31;6.80;;;1.73;;
75628;SDS011;64213;46.452;16.994;2023-08-07T04:21:34;5.72;;;1.50;;
75628;SDS011;64213;46.452;16.994;2023-08-07T04:24:36;8.77;;;1.70;;
75628;SDS011;64213;46.452;16.994;2023-08-07T04:27:38;6.50;;;1.60;;
75628;SDS011;64213;46.452;16.994;2023-08-07T04:30:40;7.40;;;1.87;;
75628;SDS011;64213;46.452;16.994;2023-08-07T04:33:43;7.80;;;1.80;;
75628;SDS011;64213;46.452;16.994;2023-08-07T04:36:45;7.37;;;1.67;;
75628;SDS011;64213;46.452;16.994;2023-08-07T04:39:47;7.60;;;1.70;;
75628;SDS011;64213;46.452;16.994;2023-08-07T04:42:49;7.28;;;1.85;;
75628;SDS011;64213;46.452;16.994;2023-08-07T04:45:52;7.75;;;1.70;;
75628;SDS011;64213;46.452;16.994;2023-08-07T04:48:54;6.43;;;1.60;;
75628;SDS011;64213;46.452;16.994;2023-08-07T04:51:56;7.35;;;1.60;;
75628;SDS011;64213;46.452;16.994;2023-08-07T04:54:59;9.27;;;1.85;;
75628;SDS011;64213;46.452;16.994;2023-08-07T04:58:01;9.15;;;1.80;;
75628;SDS011;64213;46.452;16.994;2023-08-07T05:01:03;8.25;;;1.90;;
75628;SDS011;64213;46.452;16.994;2023-08-07T05:04:05;5.83;;;1.23;;
75628;SDS011;64213;46.452;16.994;2023-08-07T05:07:07;7.50;;;1.90;;
75628;SDS011;64213;46.452;16.994;2023-08-07T05:10:09;7.25;;;1.80;;
75628;SDS011;64213;46.452;16.994;2023-08-07T05:13:11;8.25;;;2.08;;
75628;SDS011;64213;46.452;16.994;2023-08-07T05:16:13;6.15;;;1.65;;
75628;SDS011;64213;46.452;16.994;2023-08-07T05:19:15;9.53;;;1.60;;
75628;SDS011;64213;46.452;16.994;2023-08-07T05:22:17;7.20;;;1.30;;
75628;SDS011;64213;46.452;16.994;2023-08-07T05:25:20;6.70;;;1.58;;
75628;SDS011;64213;46.452;16.994;2023-08-07T05:28:21;6.10;;;1.58;;
75628;SDS011;64213;46.452;16.994;2023-08-07T05:31:24;11.25;;;1.80;;
75628;SDS011;64213;46.452;16.994;2023-08-07T05:34:30;8.00;;;1.80;;
75628;SDS011;64213;46.452;16.994;2023-08-07T05:37:32;6.45;;;1.67;;
75628;SDS011;64213;46.452;16.994;2023-08-07T05:40:34;6.05;;;1.20;;
75628;SDS011;64213;46.452;16.994;2023-08-07T05:43:38;6.97;;;1.50;;
75628;SDS011;64213;46.452;16.994;2023-08-07T05:46:40;7.53;;;1.58;;
75628;SDS011;64213;46.452;16.994;2023-08-07T05:49:42;7.23;;;1.60;;
75628;SDS011;64213;46.452;16.994;2023-08-07T05:52:44;5.30;;;1.12;;
75628;SDS011;64213;46.452;16.994;2023-08-07T05:55:46;5.12;;;1.20;;
75628;SDS011;64213;46.452;16.994;2023-08-07T05:58:48;6.57;;;0.95;;
75628;SDS011;64213;46.452;16.994;2023-08-07T06:01:50;5.37;;;1.00;;
75628;SDS011;64213;46.452;16.994;2023-08-07T06:04:53;6.00;;;0.83;;
75628;SDS011;64213;46.452;16.994;2023-08-07T06:07:55;4.18;;;0.90;;
75628;SDS011;64213;46.452;16.994;2023-08-07T06:10:57;5.25;;;0.80;;
75628;SDS011;64213;46.452;16.994;2023-08-07T06:13:59;4.80;;;0.98;;
75628;SDS011;64213;46.452;16.994;2023-08-07T06:17:02;4.43;;;0.70;;
75628;SDS011;64213;46.452;16.994;2023-08-07T06:20:04;6.17;;;0.90;;
75628;SDS011;64213;46.452;16.994;2023-08-07T06:23:10;8.70;;;1.20;;
75628;SDS011;64213;46.452;16.994;2023-08-07T06:26:12;4.28;;;0.80;;
75628;SDS011;64213;46.452;16.994;2023-08-07T06:29:14;3.67;;;0.80;;
75628;SDS011;64213;46.452;16.994;2023-08-07T06:32:16;3.87;;;0.70;;
75628;SDS011;64213;46.452;16.994;2023-08-07T06:35:19;4.73;;;1.03;;
75628;SDS011;64213;46.452;16.994;2023-08-07T06:38:22;5.55;;;0.98;;
75628;SDS011;64213;46.452;16.994;2023-08-07T06:41:24;3.90;;;0.82;;
75628;SDS011;64213;46.452;16.994;2023-08-07T06:44:26;4.93;;;0.75;;
75628;SDS011;64213;46.452;16.994;2023-08-07T06:47:28;3.72;;;0.85;;
75628;SDS011;64213;46.452;16.994;2023-08-07T06:50:30;5.60;;;0.87;;
75628;SDS011;64213;46.452;16.994;2023-08-07T06:53:32;5.10;;;1.08;;
75628;SDS011;64213;46.452;16.994;2023-08-07T06:56:34;3.10;;;0.70;;
75628;SDS011;64213;46.452;16.994;2023-08-07T06:59:36;4.55;;;0.98;;
75628;SDS011;64213;46.452;16.994;2023-08-07T07:02:38;6.43;;;0.90;;
75628;SDS011;64213;46.452;16.994;2023-08-07T07:05:40;6.90;;;0.80;;
75628;SDS011;64213;46.452;16.994;2023-08-07T07:08:44;4.25;;;0.90;;
75628;SDS011;64213;46.452;16.994;2023-08-07T07:11:46;3.65;;;0.75;;
75628;SDS011;64213;46.452;16.994;2023-08-07T07:14:49;5.00;;;0.90;;
75628;SDS011;64213;46.452;16.994;2023-08-07T07:17:50;4.47;;;0.70;;
75628;SDS011;64213;46.452;16.994;2023-08-07T07:20:56;4.37;;;0.70;;
75628;SDS011;64213;46.452;16.994;2023-08-07T07:24:01;2.85;;;0.60;;
75628;SDS011;64213;46.452;16.994;2023-08-07T07:27:03;4.25;;;0.98;;
75628;SDS011;64213;46.452;16.994;2023-08-07T07:30:06;4.35;;;0.90;;
75628;SDS011;64213;46.452;16.994;2023-08-07T07:33:09;4.97;;;0.73;;
75628;SDS011;64213;46.452;16.994;2023-08-07T07:36:17;7.67;;;1.00;;
75628;SDS011;64213;46.452;16.994;2023-08-07T07:39:20;2.83;;;0.60;;
75628;SDS011;64213;46.452;16.994;2023-08-07T07:42:22;3.85;;;0.75;;
75628;SDS011;64213;46.452;16.994;2023-08-07T07:45:24;6.30;;;0.90;;
75628;SDS011;64213;46.452;16.994;2023-08-07T07:48:26;6.72;;;0.80;;
75628;SDS011;64213;46.452;16.994;2023-08-07T07:51:28;3.43;;;0.80;;
75628;SDS011;64213;46.452;16.994;2023-08-07T07:54:30;4.50;;;0.90;;
75628;SDS011;64213;46.452;16.994;2023-08-07T07:57:32;3.92;;;0.90;;
75628;SDS011;64213;46.452;16.994;2023-08-07T08:00:35;4.37;;;0.77;;
75628;SDS011;64213;46.452;16.994;2023-08-07T08:03:39;5.30;;;0.80;;
75628;SDS011;64213;46.452;16.994;2023-08-07T08:06:41;3.93;;;0.90;;
75628;SDS011;64213;46.452;16.994;2023-08-07T08:09:43;4.22;;;1.10;;
75628;SDS011;64213;46.452;16.994;2023-08-07T08:12:46;3.70;;;1.00;;
75628;SDS011;64213;46.452;16.994;2023-08-07T08:15:48;5.50;;;1.00;;
75628;SDS011;64213;46.452;16.994;2023-08-07T08:18:50;6.22;;;0.90;;
75628;SDS011;64213;46.452;16.994;2023-08-07T08:21:52;3.33;;;0.70;;
75628;SDS011;64213;46.452;16.994;2023-08-07T08:24:55;4.00;;;0.70;;
75628;SDS011;64213;46.452;16.994;2023-08-07T08:27:57;4.22;;;0.70;;
75628;SDS011;64213;46.452;16.994;2023-08-07T08:30:59;4.10;;;0.80;;
75628;SDS011;64213;46.452;16.994;2023-08-07T08:34:01;3.62;;;0.80;;
75628;SDS011;64213;46.452;16.994;2023-08-07T08:37:03;5.93;;;1.03;;
75628;SDS011;64213;46.452;16.994;2023-08-07T08:40:08;5.65;;;0.88;;
75628;SDS011;64213;46.452;16.994;2023-08-07T08:43:13;4.28;;;1.00;;
75628;SDS011;64213;46.452;16.994;2023-08-07T08:46:16;4.45;;;0.80;;
75628;SDS011;64213;46.452;16.994;2023-08-07T08:49:23;3.92;;;0.70;;
75628;SDS011;64213;46.452;16.994;2023-08-07T08:52:32;3.20;;;0.70;;
75628;SDS011;64213;46.452;16.994;2023-08-07T08:55:35;5.22;;;0.82;;
75628;SDS011;64213;46.452;16.994;2023-08-07T08:58:38;3.45;;;0.70;;
75628;SDS011;64213;46.452;16.994;2023-08-07T09:01:41;3.37;;;0.60;;
75628;SDS011;64213;46.452;16.994;2023-08-07T09:04:46;4.80;;;0.50;;
75628;SDS011;64213;46.452;16.994;2023-08-07T09:07:48;3.00;;;0.37;;
75628;SDS011;64213;46.452;16.994;2023-08-07T09:10:51;3.60;;;0.50;;
75628;SDS011;64213;46.452;16.994;2023-08-07T09:13:53;3.90;;;0.50;;
75628;SDS011;64213;46.452;16.994;2023-08-07T09:16:59;2.70;;;0.50;;
75628;SDS011;64213;46.452;16.994;2023-08-07T09:20:03;2.90;;;0.50;;
75628;SDS011;64213;46.452;16.994;2023-08-07T09:23:06;2.00;;;0.53;;
75628;SDS011;64213;46.452;16.994;2023-08-07T09:26:08;3.62;;;0.62;;
75628;SDS011;64213;46.452;16.994;2023-08-07T09:29:12;2.97;;;0.60;;
75628;SDS011;64213;46.452;16.994;2023-08-07T09:32:14;5.87;;;0.80;;
75628;SDS011;64213;46.452;16.994;2023-08-07T09:35:19;2.33;;;0.60;;
75628;SDS011;64213;46.452;16.994;2023-08-07T09:38:23;2.83;;;0.70;;
75628;SDS011;64213;46.452;16.994;2023-08-07T09:41:25;3.65;;;0.98;;
75628;SDS011;64213;46.452;16.994;2023-08-07T09:44:35;2.95;;;0.85;;
75628;SDS011;64213;46.452;16.994;2023-08-07T09:47:38;2.80;;;0.85;;
75628;SDS011;64213;46.452;16.994;2023-08-07T09:50:40;3.40;;;1.10;;
75628;SDS011;64213;46.452;16.994;2023-08-07T09:53:42;3.77;;;1.00;;
75628;SDS011;64213;46.452;16.994;2023-08-07T09:56:44;3.35;;;0.98;;
75628;SDS011;64213;46.452;16.994;2023-08-07T09:59:49;3.85;;;0.95;;
75628;SDS011;64213;46.452;16.994;2023-08-07T10:02:53;3.10;;;1.05;;
75628;SDS011;64213;46.452;16.994;2023-08-07T10:05:56;3.37;;;1.10;;
75628;SDS011;64213;46.452;16.994;2023-08-07T10:08:59;4.63;;;1.10;;
75628;SDS011;64213;46.452;16.994;2023-08-07T10:12:03;5.45;;;1.25;;
75628;SDS011;64213;46.452;16.994;2023-08-07T10:15:06;4.57;;;1.00;;
75628;SDS011;64213;46.452;16.994;2023-08-07T10:18:08;2.30;;;0.70;;
75628;SDS011;64213;46.452;16.994;2023-08-07T10:21:11;3.03;;;0.70;;
75628;SDS011;64213;46.452;16.994;2023-08-07T10:24:13;3.40;;;0.80;;
75628;SDS011;64213;46.452;16.994;2023-08-07T10:27:17;2.37;;;0.73;;
75628;SDS011;64213;46.452;16.994;2023-08-07T10:30:22;3.58;;;0.75;;
75628;SDS011;64213;46.452;16.994;2023-08-07T10:33:25;3.00;;;0.68;;
75628;SDS011;64213;46.452;16.994;2023-08-07T10:36:35;2.72;;;0.70;;
75628;SDS011;64213;46.452;16.994;2023-08-07T10:39:37;2.93;;;0.77;;
75628;SDS011;64213;46.452;16.994;2023-08-07T10:43:12;2.83;;;0.70;;
75628;SDS011;64213;46.452;16.994;2023-08-07T10:46:21;3.55;;;0.80;;
75628;SDS011;64213;46.452;16.994;2023-08-07T10:49:38;2.25;;;0.50;;
75628;SDS011;64213;46.452;16.994;2023-08-07T10:52:42;2.35;;;0.70;;
75628;SDS011;64213;46.452;16.994;2023-08-07T10:55:44;1.90;;;0.50;;
75628;SDS011;64213;46.452;16.994;2023-08-07T10:58:50;1.50;;;0.40;;
75628;SDS011;64213;46.452;16.994;2023-08-07T11:01:54;1.60;;;0.50;;
75628;SDS011;64213;46.452;16.994;2023-08-07T11:04:56;2.00;;;0.40;;
75628;SDS011;64213;46.452;16.994;2023-08-07T11:07:59;1.80;;;0.50;;
75628;SDS011;64213;46.452;16.994;2023-08-07T11:11:04;1.70;;;0.40;;
75628;SDS011;64213;46.452;16.994;2023-08-07T11:14:11;2.20;;;0.40;;
75628;SDS011;64213;46.452;16.994;2023-08-07T11:17:15;2.65;;;0.40;;
75628;SDS011;64213;46.452;16.994;2023-08-07T11:20:18;2.03;;;0.52;;
75628;SDS011;64213;46.452;16.994;2023-08-07T11:23:25;1.75;;;0.43;;
75628;SDS011;64213;46.452;16.994;2023-08-07T11:26:27;1.13;;;0.30;;
75628;SDS011;64213;46.452;16.994;2023-08-07T11:29:30;2.20;;;0.52;;
75628;SDS011;64213;46.452;16.994;2023-08-07T11:32:32;4.30;;;0.30;;
75628;SDS011;64213;46.452;16.994;2023-08-07T11:35:34;2.03;;;0.47;;
75628;SDS011;64213;46.452;16.994;2023-08-07T11:38:37;1.48;;;0.50;;
75628;SDS011;64213;46.452;16.994;2023-08-07T11:41:46;1.50;;;0.40;;
75628;SDS011;64213;46.452;16.994;2023-08-07T11:44:49;2.67;;;0.47;;
75628;SDS011;64213;46.452;16.994;2023-08-07T11:47:51;1.90;;;0.50;;
75628;SDS011;64213;46.452;16.994;2023-08-07T11:50:55;1.23;;;0.32;;
75628;SDS011;64213;46.452;16.994;2023-08-07T11:53:58;1.60;;;0.45;;
75628;SDS011;64213;46.452;16.994;2023-08-07T11:57:01;3.50;;;0.50;;
75628;SDS011;64213;46.452;16.994;2023-08-07T12:00:05;2.08;;;0.50;;
75628;SDS011;64213;46.452;16.994;2023-08-07T12:03:29;1.52;;;0.50;;
75628;SDS011;64213;46.452;16.994;2023-08-07T12:06:33;1.87;;;0.55;;
75628;SDS011;64213;46.452;16.994;2023-08-07T12:09:36;2.50;;;0.60;;
75628;SDS011;64213;46.452;16.994;2023-08-07T12:12:39;2.13;;;0.47;;
75628;SDS011;64213;46.452;16.994;2023-08-07T12:15:41;2.20;;;0.60;;
75628;SDS011;64213;46.452;16.994;2023-08-07T12:18:44;2.00;;;0.47;;
75628;SDS011;64213;46.452;16.994;2023-08-07T12:21:48;3.90;;;0.68;;
75628;SDS011;64213;46.452;16.994;2023-08-07T12:24:50;3.03;;;0.70;;
75628;SDS011;64213;46.452;16.994;2023-08-07T12:27:52;3.63;;;0.70;;
75628;SDS011;64213;46.452;16.994;2023-08-07T12:30:54;2.80;;;0.70;;
75628;SDS011;64213;46.452;16.994;2023-08-07T12:33:56;2.60;;;0.80;;
75628;SDS011;64213;46.452;16.994;2023-08-07T12:37:18;2.53;;;0.50;;
75628;SDS011;64213;46.452;16.994;2023-08-07T12:40:20;2.33;;;0.62;;
75628;SDS011;64213;46.452;16.994;2023-08-07T12:43:25;2.53;;;0.80;;
75628;SDS011;64213;46.452;16.994;2023-08-07T12:46:27;2.55;;;0.60;;
75628;SDS011;64213;46.452;16.994;2023-08-07T12:49:33;2.22;;;0.60;;
75628;SDS011;64213;46.452;16.994;2023-08-07T12:52:35;2.62;;;0.73;;
75628;SDS011;64213;46.452;16.994;2023-08-07T12:55:37;2.40;;;0.60;;
75628;SDS011;64213;46.452;16.994;2023-08-07T12:58:39;2.43;;;0.60;;
75628;SDS011;64213;46.452;16.994;2023-08-07T13:01:43;1.87;;;0.50;;
75628;SDS011;64213;46.452;16.994;2023-08-07T13:04:45;2.58;;;0.62;;
75628;SDS011;64213;46.452;16.994;2023-08-07T13:07:48;3.30;;;0.40;;
75628;SDS011;64213;46.452;16.994;2023-08-07T13:10:50;1.58;;;0.40;;
75628;SDS011;64213;46.452;16.994;2023-08-07T13:13:52;1.53;;;0.50;;
75628;SDS011;64213;46.452;16.994;2023-08-07T13:16:54;2.47;;;0.45;;
75628;SDS011;64213;46.452;16.994;2023-08-07T13:19:58;2.28;;;0.40;;
75628;SDS011;64213;46.452;16.994;2023-08-07T13:23:03;3.50;;;0.50;;
75628;SDS011;64213;46.452;16.994;2023-08-07T13:26:08;2.55;;;0.60;;
75628;SDS011;64213;46.452;16.994;2023-08-07T13:29:10;2.47;;;0.60;;
75628;SDS011;64213;46.452;16.994;2023-08-07T13:32:13;2.50;;;0.43;;
75628;SDS011;64213;46.452;16.994;2023-08-07T13:35:15;3.17;;;0.80;;
75628;SDS011;64213;46.452;16.994;2023-08-07T13:38:17;1.98;;;0.60;;
75628;SDS011;64213;46.452;16.994;2023-08-07T13:41:20;1.98;;;0.50;;
75628;SDS011;64213;46.452;16.994;2023-08-07T13:44:22;1.47;;;0.40;;
75628;SDS011;64213;46.452;16.994;2023-08-07T13:47:24;1.90;;;0.40;;
75628;SDS011;64213;46.452;16.994;2023-08-07T13:50:27;3.20;;;0.70;;
75628;SDS011;64213;46.452;16.994;2023-08-07T13:53:30;2.45;;;0.50;;
75628;SDS011;64213;46.452;16.994;2023-08-07T13:56:32;2.42;;;0.77;;
75628;SDS011;64213;46.452;16.994;2023-08-07T13:59:34;2.53;;;0.43;;
75628;SDS011;64213;46.452;16.994;2023-08-07T14:02:37;2.33;;;0.60;;
75628;SDS011;64213;46.452;16.994;2023-08-07T14:05:41;2.08;;;0.50;;
75628;SDS011;64213;46.452;16.994;2023-08-07T14:08:44;2.60;;;0.60;;
75628;SDS011;64213;46.452;16.994;2023-08-07T14:11:47;3.10;;;0.50;;
75628;SDS011;64213;46.452;16.994;2023-08-07T14:14:50;4.33;;;1.10;;
75628;SDS011;64213;46.452;16.994;2023-08-07T14:17:52;2.67;;;0.50;;
75628;SDS011;64213;46.452;16.994;2023-08-07T14:20:55;1.65;;;0.45;;
75628;SDS011;64213;46.452;16.994;2023-08-07T14:24:04;6.37;;;2.58;;
75628;SDS011;64213;46.452;16.994;2023-08-07T14:27:07;1.30;;;0.40;;
75628;SDS011;64213;46.452;16.994;2023-08-07T14:30:12;1.40;;;0.33;;
75628;SDS011;64213;46.452;16.994;2023-08-07T14:33:14;2.83;;;0.35;;
75628;SDS011;64213;46.452;16.994;2023-08-07T14:36:16;2.33;;;0.70;;
75628;SDS011;64213;46.452;16.994;2023-08-07T14:39:18;1.37;;;0.37;;
75628;SDS011;64213;46.452;16.994;2023-08-07T14:42:22;3.65;;;0.50;;
75628;SDS011;64213;46.452;16.994;2023-08-07T14:45:25;3.10;;;0.40;;
75628;SDS011;64213;46.452;16.994;2023-08-07T14:48:27;2.03;;;0.40;;
75628;SDS011;64213;46.452;16.994;2023-08-07T14:51:29;1.65;;;0.40;;
75628;SDS011;64213;46.452;16.994;2023-08-07T14:54:31;2.00;;;0.50;;
75628;SDS011;64213;46.452;16.994;2023-08-07T14:57:34;2.28;;;0.55;;
75628;SDS011;64213;46.452;16.994;2023-08-07T15:00:36;1.57;;;0.40;;
75628;SDS011;64213;46.452;16.994;2023-08-07T15:03:38;1.77;;;0.45;;
75628;SDS011;64213;46.452;16.994;2023-08-07T15:06:40;2.65;;;0.60;;
75628;SDS011;64213;46.452;16.994;2023-08-07T15:09:43;1.67;;;0.40;;
75628;SDS011;64213;46.452;16.994;2023-08-07T15:12:46;1.67;;;0.55;;
75628;SDS011;64213;46.452;16.994;2023-08-07T15:15:48;1.30;;;0.40;;
75628;SDS011;64213;46.452;16.994;2023-08-07T15:18:50;1.83;;;0.40;;
75628;SDS011;64213;46.452;16.994;2023-08-07T15:21:52;2.10;;;0.43;;
75628;SDS011;64213;46.452;16.994;2023-08-07T15:24:54;1.87;;;0.40;;
75628;SDS011;64213;46.452;16.994;2023-08-07T15:27:56;2.70;;;0.60;;
75628;SDS011;64213;46.452;16.994;2023-08-07T15:31:02;2.03;;;0.37;;
75628;SDS011;64213;46.452;16.994;2023-08-07T15:34:04;2.78;;;0.60;;
75628;SDS011;64213;46.452;16.994;2023-08-07T15:37:06;1.98;;;0.30;;
75628;SDS011;64213;46.452;16.994;2023-08-07T15:40:08;1.10;;;0.25;;
75628;SDS011;64213;46.452;16.994;2023-08-07T15:43:11;2.78;;;0.60;;
75628;SDS011;64213;46.452;16.994;2023-08-07T15:46:13;2.67;;;0.40;;
75628;SDS011;64213;46.452;16.994;2023-08-07T15:49:16;3.28;;;0.35;;
75628;SDS011;64213;46.452;16.994;2023-08-07T15:52:18;3.28;;;0.62;;
75628;SDS011;64213;46.452;16.994;2023-08-07T15:55:20;2.33;;;0.50;;
75628;SDS011;64213;46.452;16.994;2023-08-07T15:58:22;1.98;;;0.50;;
75628;SDS011;64213;46.452;16.994;2023-08-07T16:01:24;2.20;;;0.50;;
75628;SDS011;64213;46.452;16.994;2023-08-07T16:04:26;1.70;;;0.40;;
75628;SDS011;64213;46.452;16.994;2023-08-07T16:07:29;2.25;;;0.50;;
75628;SDS011;64213;46.452;16.994;2023-08-07T16:10:31;1.67;;;0.30;;
75628;SDS011;64213;46.452;16.994;2023-08-07T16:13:34;2.40;;;0.50;;
75628;SDS011;64213;46.452;16.994;2023-08-07T16:16:36;1.73;;;0.40;;
75628;SDS011;64213;46.452;16.994;2023-08-07T16:19:40;2.10;;;0.40;;
75628;SDS011;64213;46.452;16.994;2023-08-07T16:22:42;2.47;;;0.50;;
75628;SDS011;64213;46.452;16.994;2023-08-07T16:25:44;2.35;;;0.45;;
75628;SDS011;64213;46.452;16.994;2023-08-07T16:28:46;1.98;;;0.40;;
75628;SDS011;64213;46.452;16.994;2023-08-07T16:31:48;2.13;;;0.50;;
75628;SDS011;64213;46.452;16.994;2023-08-07T16:34:54;1.37;;;0.32;;
75628;SDS011;64213;46.452;16.994;2023-08-07T16:37:56;1.92;;;0.45;;
75628;SDS011;64213;46.452;16.994;2023-08-07T16:40:59;2.78;;;0.50;;
75628;SDS011;64213;46.452;16.994;2023-08-07T16:44:01;2.37;;;0.40;;
75628;SDS011;64213;46.452;16.994;2023-08-07T16:47:04;2.10;;;0.40;;
75628;SDS011;64213;46.452;16.994;2023-08-07T16:50:08;1.87;;;0.30;;
75628;SDS011;64213;46.452;16.994;2023-08-07T16:53:11;2.03;;;0.37;;
75628;SDS011;64213;46.452;16.994;2023-08-07T16:56:13;1.70;;;0.32;;
75628;SDS011;64213;46.452;16.994;2023-08-07T16:59:16;2.45;;;0.40;;
75628;SDS011;64213;46.452;16.994;2023-08-07T17:02:19;3.00;;;0.30;;
75628;SDS011;64213;46.452;16.994;2023-08-07T17:05:23;4.30;;;1.20;;
75628;SDS011;64213;46.452;16.994;2023-08-07T17:08:26;2.17;;;0.52;;
75628;SDS011;64213;46.452;16.994;2023-08-07T17:11:28;2.20;;;0.45;;
75628;SDS011;64213;46.452;16.994;2023-08-07T17:14:32;2.45;;;0.50;;
75628;SDS011;64213;46.452;16.994;2023-08-07T17:17:34;2.20;;;0.30;;
75628;SDS011;64213;46.452;16.994;2023-08-07T17:20:37;1.52;;;0.30;;
75628;SDS011;64213;46.452;16.994;2023-08-07T17:23:39;2.62;;;0.57;;
75628;SDS011;64213;46.452;16.994;2023-08-07T17:26:42;2.22;;;0.35;;
75628;SDS011;64213;46.452;16.994;2023-08-07T17:29:44;2.10;;;0.40;;
75628;SDS011;64213;46.452;16.994;2023-08-07T17:32:46;2.73;;;0.60;;
75628;SDS011;64213;46.452;16.994;2023-08-07T17:35:49;1.77;;;0.30;;
75628;SDS011;64213;46.452;16.994;2023-08-07T17:38:52;4.87;;;0.40;;
75628;SDS011;64213;46.452;16.994;2023-08-07T17:41:55;2.97;;;0.50;;
75628;SDS011;64213;46.452;16.994;2023-08-07T17:44:57;3.35;;;0.75;;
75628;SDS011;64213;46.452;16.994;2023-08-07T17:48:00;2.03;;;0.30;;
75628;SDS011;64213;46.452;16.994;2023-08-07T17:51:04;2.15;;;0.47;;
75628;SDS011;64213;46.452;16.994;2023-08-07T17:54:06;1.90;;;0.30;;
75628;SDS011;64213;46.452;16.994;2023-08-07T17:57:09;3.05;;;0.40;;
75628;SDS011;64213;46.452;16.994;2023-08-07T18:00:12;2.28;;;0.40;;
75628;SDS011;64213;46.452;16.994;2023-08-07T18:03:17;2.00;;;0.50;;
75628;SDS011;64213;46.452;16.994;2023-08-07T18:06:20;2.80;;;0.40;;